Ohyamamaru — JG5507 — position and weather

sailwx.info

Track history (hours):
 
Tides and Currents Weather Stations Pressure Air Temp Water Temp Dewpoint Dewpoint Depression Visibility Wind Speed Wind Dir Waves Ship Positions

Ohyamamaru

Last reported at 2014-Oct-23 23:33 UTC. Time now 2014-Oct-24 16:20 UTC.
Position N 35°38' E 139°46'.

Length 36 m; draft 4.4 m.

Type: Tug. MMSI: 431001114.

Date/timePositionNaut miles runAvg speedWind from/ knotsBaromVisibWave heightAir tempDewpointWater temp
2014-Oct-23 23:33N 35°38' E 139°46'3 2.7
2014-Oct-23 22:32N 35°35' E 139°47'2 0.2
2014-Oct-23 10:21N 35°37' E 139°46'2 2.4
2014-Oct-23 09:33N 35°36' E 139°47'2 2.2
2014-Oct-23 08:33N 35°34' E 139°49'5 0.5
2014-Oct-22 23:10N 35°38' E 139°46'2 3.2
2014-Oct-22 22:33N 35°36' E 139°47'0 0.1
2014-Oct-22 20:32N 35°36' E 139°47'2 0.1
2014-Oct-22 02:08N 35°34' E 139°49'1 1.6
2014-Oct-22 01:32N 35°35' E 139°48'3 0.2
2014-Oct-21 12:31N 35°37' E 139°46'4 4.4
2014-Oct-21 11:33N 35°34' E 139°50'4 1.9
2014-Oct-21 09:21N 35°37' E 139°46'  
2014-Oct-18 23:33N 35°37' E 139°46'3 2.5
2014-Oct-18 22:24N 35°35' E 139°48'2 2.1
2014-Oct-18 21:30N 35°34' E 139°50'3 2.7
2014-Oct-18 20:16N 35°36' E 139°46'2 0.0
2014-Oct-16 20:17N 35°38' E 139°46'2 2.0
2014-Oct-16 19:19N 35°36' E 139°46'1 0.2
2014-Oct-16 12:33N 35°36' E 139°48'1 1.3
2014-Oct-16 11:26N 35°37' E 139°46'4 4.2
2014-Oct-16 10:32N 35°34' E 139°49'3 2.5
2014-Oct-16 09:09N 35°36' E 139°46'2 0.0
2014-Oct-14 16:24N 35°38' E 139°46'4 3.7
2014-Oct-14 15:20N 35°35' E 139°48'1 1.6
2014-Oct-14 14:28N 35°35' E 139°47'0 0.1
2014-Oct-14 12:29N 35°35' E 139°47'0 0.0
2014-Oct-14 11:29N 35°35' E 139°47'0 0.0
2014-Oct-14 10:33N 35°35' E 139°47'0 0.0
2014-Oct-14 09:33N 35°35' E 139°47'0 0.0
2014-Oct-14 08:31N 35°35' E 139°47'1 0.6
2014-Oct-14 07:22N 35°36' E 139°47'1 1.5
2014-Oct-14 06:31N 35°37' E 139°46'  
Track history (hours):
 
Tides and Currents Weather Stations Pressure Air Temp Water Temp Dewpoint Dewpoint Depression Visibility Wind Speed Wind Dir Waves Ship Positions

Ohyamamaru

Last reported at 2014-Oct-23 23:33 UTC. Time now 2014-Oct-24 16:20 UTC.
Position N 35°38' E 139°46'.

Length 36 m; draft 4.4 m.

Type: Tug. MMSI: 431001114.

Date/timePositionNaut miles runAvg speedWind from/ knotsBaromVisibWave heightAir tempDewpointWater temp
2014-Oct-23 23:33N 35°38' E 139°46'3 2.7
2014-Oct-23 22:32N 35°35' E 139°47'2 0.2
2014-Oct-23 10:21N 35°37' E 139°46'2 2.4
2014-Oct-23 09:33N 35°36' E 139°47'2 2.2
2014-Oct-23 08:33N 35°34' E 139°49'5 0.5
2014-Oct-22 23:10N 35°38' E 139°46'2 3.2
2014-Oct-22 22:33N 35°36' E 139°47'0 0.1
2014-Oct-22 20:32N 35°36' E 139°47'2 0.1
2014-Oct-22 02:08N 35°34' E 139°49'1 1.6
2014-Oct-22 01:32N 35°35' E 139°48'3 0.2
2014-Oct-21 12:31N 35°37' E 139°46'4 4.4
2014-Oct-21 11:33N 35°34' E 139°50'4 1.9
2014-Oct-21 09:21N 35°37' E 139°46'  
2014-Oct-18 23:33N 35°37' E 139°46'3 2.5
2014-Oct-18 22:24N 35°35' E 139°48'2 2.1
2014-Oct-18 21:30N 35°34' E 139°50'3 2.7
2014-Oct-18 20:16N 35°36' E 139°46'2 0.0
2014-Oct-16 20:17N 35°38' E 139°46'2 2.0
2014-Oct-16 19:19N 35°36' E 139°46'1 0.2
2014-Oct-16 12:33N 35°36' E 139°48'1 1.3
2014-Oct-16 11:26N 35°37' E 139°46'4 4.2
2014-Oct-16 10:32N 35°34' E 139°49'3 2.5
2014-Oct-16 09:09N 35°36' E 139°46'2 0.0
2014-Oct-14 16:24N 35°38' E 139°46'4 3.7
2014-Oct-14 15:20N 35°35' E 139°48'1 1.6
2014-Oct-14 14:28N 35°35' E 139°47'0 0.1
2014-Oct-14 12:29N 35°35' E 139°47'0 0.0
2014-Oct-14 11:29N 35°35' E 139°47'0 0.0
2014-Oct-14 10:33N 35°35' E 139°47'0 0.0
2014-Oct-14 09:33N 35°35' E 139°47'0 0.0
2014-Oct-14 08:31N 35°35' E 139°47'1 0.6
2014-Oct-14 07:22N 35°36' E 139°47'1 1.5
2014-Oct-14 06:31N 35°37' E 139°46'  

Dump ship's entire track history